Langley Air Force Base, VA

11:20 PM EDT on April 25, 2015 (GMT -0400)
Nelson Farms | | Change Station
CLOSE
Current Station
Personal Weather Station
Location: Hampton, VA
Elevation: 23 ft
Nearby Weather Stations

Elev 23 ft 37.07 °N, 76.42 °W | Updated 16 seconds ago

Light Drizzle
Light Drizzle Mist
46.6 °F
Feels Like 47 °F
N
1.7
Wind Variable Wind from NNE
Gusts 3.7 mph

Today
High -- | Low -- °F
--% Chance of Precip.
Yesterday
High -- | Low -- °F
Precip. -- in
6:18 AM 7:49 PM
First Quarter, 51% visible
Pressure 29.67 in
Visibility 4.0 miles
Clouds Overcast 700 ft
Windchill 47 °F
Dew Point 46 °F
Humidity 99%
Rainfall 0.23 in
Snow Depth Not available.
UV 0 out of 12
Pollen 8.90 out of 12
Air Quality Not available.
Flu Activity Sporadic
SPECI KLFI 260313Z AUTO 05009KT 4SM R08/4500FT -DZ BR OVC007 09/08 A2967 RMK AO2 RAE11DZB11 CIG 007V010 $

More Conditions Fewer Conditions

Pressure 29.67 in
Visibility 4.0 miles
Clouds Overcast 700 ft
Windchill 47 °F
Dew Point 46 °F
Humidity 99%
Rainfall 0.23 in
Snow Depth Not available.
UV 0 out of 12
Pollen 8.90 out of 12
Air Quality Not available.
Flu Activity Sporadic
SPECI KLFI 260313Z AUTO 05009KT 4SM R08/4500FT -DZ BR OVC007 09/08 A2967 RMK AO2 RAE11DZB11 CIG 007V010 $

More Conditions Fewer Conditions

The full scope of the disaster following a powerful 7.8-magnitude earthquake in Nepal may not come into view for days, but global charities are already sending emergency aid. Click to see how you can help.

10-Day Weather Forecast

Almanac

Astronomy

Apr. 25, 2015 Rise Set
Actual Time
Civil Twilight
Nautical Twilight
Astronomical Twilight
Moon
Length of Visible Light
Length of Day
Tomorrow will be .
, % of the Moon is Illuminated

Today's Extremes

State Highs State Lows

Community

WunderPhotos

Upload Photos

1,816,918 photos uploaded!

WunderBlogs® & News

Nearby

Air Quality

  Air Quality AQ Index Pollutant
Not available.

Snow Depth

Station Depth Elevation

Earthquake Activity

City Distance Mag. Time & Date
Minimum magnitude displayed is 2.5.

Coastal Water Temperatures

Place Temperature

Stations

Nearby Weather Stations

Station Location Temp. Windchill Dew Point Humidity Wind Precip. Elev Updated Type